Time;durP1;ratioP1;P1;durP2;ratioP2;P2;SDS_P1;SDS_P2;PMS_P1;PMS_P2;Temp;Humidity;BMP_temperature;BMP_pressure;BME280_temperature;BME280_humidity;BME280_pressure;Samples;Min_cycle;Max_cycle;Signal;HPM_P1;HPM_P2
2024/03/23 00:01:20;;;;;;;4.47;3.58;;;;;;;10.45;56.38;99690.53;4460851;31;35708;-82
2024/03/23 00:03:48;;;;;;;1.00;0.90;;;;;;;10.50;56.48;99685.06;4457079;31;35104;-82
2024/03/23 00:06:17;;;;;;;2.80;1.52;;;;;;;10.35;57.22;99686.59;4486931;31;31692;-82
2024/03/23 00:08:45;;;;;;;1.50;1.40;;;;;;;10.45;56.64;99679.97;4487914;31;33854;-82
2024/03/23 00:11:13;;;;;;;1.08;0.93;;;;;;;10.51;56.31;99676.19;4484861;31;34504;-83
2024/03/23 00:13:41;;;;;;;12.77;2.70;;;;;;;10.36;56.54;99677.75;4469817;31;32467;-82
2024/03/23 00:16:08;;;;;;;3.28;2.97;;;;;;;10.34;57.02;99669.03;4471848;31;32489;-83
2024/03/23 00:18:36;;;;;;;1.85;1.58;;;;;;;10.42;56.58;99672.19;4491554;31;32686;-82
2024/03/23 00:21:04;;;;;;;2.22;1.10;;;;;;;10.43;56.34;99663.34;4470847;31;33640;-83
2024/03/23 00:23:31;;;;;;;3.50;1.30;;;;;;;10.20;57.33;99663.47;4486538;31;32637;-83
2024/03/23 00:25:59;;;;;;;2.85;2.25;;;;;;;10.27;57.12;99657.03;4481790;31;32384;-82
2024/03/23 00:28:27;;;;;;;3.92;2.50;;;;;;;10.21;56.99;99660.78;4487109;31;33311;-83
2024/03/23 00:30:54;;;;;;;1.27;1.17;;;;;;;10.21;57.08;99652.03;4486400;31;33824;-83
2024/03/23 00:33:23;;;;;;;1.65;1.55;;;;;;;10.31;56.75;99655.12;4490769;31;33612;-83
2024/03/23 00:35:50;;;;;;;1.40;1.35;;;;;;;10.27;56.82;99645.63;4485422;31;32970;-82
2024/03/23 00:38:20;;;;;;;1.90;1.27;;;;;;;10.34;56.46;99636.50;4468285;31;33636;-82
2024/03/23 00:40:48;;;;;;;1.92;1.75;;;;;;;10.27;56.70;99643.84;4469989;31;33070;-82
2024/03/23 00:43:17;;;;;;;1.10;1.10;;;;;;;10.20;57.05;99642.37;4481581;31;33283;-82
2024/03/23 00:45:44;;;;;;;5.45;2.60;;;;;;;10.16;57.11;99625.84;4482442;31;33339;-83
2024/03/23 00:48:12;;;;;;;5.60;2.20;;;;;;;10.18;56.88;99625.75;4470211;31;33343;-81
2024/03/23 00:50:39;;;;;;;1.85;1.73;;;;;;;10.25;56.78;99619.28;4489199;31;33902;-81
2024/03/23 00:53:07;;;;;;;2.75;2.50;;;;;;;10.13;56.95;99618.06;4470318;31;32372;-82
2024/03/23 00:55:34;;;;;;;1.87;1.37;;;;;;;10.23;56.76;99608.78;4473580;31;34132;-82
2024/03/23 00:58:00;;;;;;;2.35;1.80;;;;;;;10.11;56.81;99612.00;4483174;31;33886;-81
2024/03/23 01:00:27;;;;;;;2.08;1.95;;;;;;;10.11;56.91;99613.75;4482717;31;34270;-81
2024/03/23 01:02:54;;;;;;;2.00;1.90;;;;;;;10.10;57.17;99601.50;4457005;31;33590;-81
2024/03/23 01:05:20;;;;;;;2.72;1.83;;;;;;;10.16;56.70;99595.94;4486059;31;34133;-81
2024/03/23 01:07:47;;;;;;;3.55;1.75;;;;;;;9.99;57.22;99597.56;4470480;31;32668;-81
2024/03/23 01:10:14;;;;;;;0.47;0.47;;;;;;;10.13;56.84;99585.53;4456603;31;35048;-81
2024/03/23 01:12:40;;;;;;;1.10;1.10;;;;;;;10.03;56.95;99582.47;4469716;31;32474;-81
2024/03/23 01:15:07;;;;;;;0.55;0.47;;;;;;;10.11;56.76;99582.09;4469551;31;32551;-81
2024/03/23 01:17:34;;;;;;;1.58;1.23;;;;;;;10.17;56.55;99584.47;4472805;31;34382;-82
2024/03/23 01:20:00;;;;;;;0.52;0.50;;;;;;;10.03;57.05;99576.34;4483648;31;32836;-81
2024/03/23 01:22:27;;;;;;;2.92;1.85;;;;;;;9.99;57.15;99579.09;4473914;31;32571;-82
2024/03/23 01:24:54;;;;;;;2.37;1.48;;;;;;;9.94;57.16;99581.09;4466591;31;33820;-80
2024/03/23 01:27:20;;;;;;;2.85;2.12;;;;;;;9.98;57.07;99563.34;4469700;31;32742;-79
2024/03/23 01:29:47;;;;;;;3.65;3.08;;;;;;;9.85;57.42;99570.09;4469072;31;33926;-80
2024/03/23 01:32:14;;;;;;;1.67;1.15;;;;;;;9.91;57.25;99564.53;4463821;31;33038;-79
2024/03/23 01:34:40;;;;;;;2.15;1.95;;;;;;;10.10;56.40;99569.84;4469436;32;32501;-80
2024/03/23 01:37:07;;;;;;;8.70;0.85;;;;;;;9.99;56.50;99563.28;4480058;31;33475;-80
2024/03/23 01:39:33;;;;;;;4.65;1.90;;;;;;;9.99;56.62;99562.41;4465098;31;34588;-80
2024/03/23 01:42:00;;;;;;;1.02;1.02;;;;;;;9.70;56.84;99574.25;4474937;31;34563;-80
2024/03/23 01:44:27;;;;;;;1.08;0.77;;;;;;;9.77;57.03;99574.84;4472206;31;32592;-80
2024/03/23 01:46:54;;;;;;;1.37;1.35;;;;;;;9.69;57.35;99569.91;4485378;31;33582;-80
2024/03/23 01:49:20;;;;;;;1.10;1.08;;;;;;;9.60;57.77;99573.81;4467705;31;34016;-81
2024/03/23 01:51:47;;;;;;;1.37;1.27;;;;;;;9.38;58.65;99567.72;4474711;31;34057;-81
2024/03/23 01:54:14;;;;;;;1.67;1.58;;;;;;;9.51;58.43;99568.06;4469733;31;33202;-81
2024/03/23 01:56:40;;;;;;;0.93;0.82;;;;;;;9.51;58.56;99563.66;4475304;31;34030;-81
2024/03/23 01:59:07;;;;;;;2.95;2.05;;;;;;;9.51;58.40;99566.28;4474943;31;31058;-82
2024/03/23 02:01:36;;;;;;;1.52;1.42;;;;;;;9.62;58.08;99557.91;4491987;31;33521;-82
2024/03/23 02:04:03;;;;;;;0.80;0.80;;;;;;;9.29;58.71;99560.22;4467990;32;33433;-82
2024/03/23 02:06:30;;;;;;;2.10;2.00;;;;;;;9.20;58.63;99556.19;4481710;31;33226;-82
2024/03/23 02:08:57;;;;;;;2.97;2.37;;;;;;;9.17;58.97;99561.59;4476342;31;32975;-81
2024/03/23 02:11:24;;;;;;;1.98;1.55;;;;;;;9.16;59.11;99552.84;4458223;31;32627;-82
2024/03/23 02:13:50;;;;;;;1.65;1.55;;;;;;;9.43;58.29;99548.16;4482395;31;33315;-82
2024/03/23 02:16:17;;;;;;;1.87;1.40;;;;;;;9.40;58.09;99552.69;4486511;31;32630;-82
2024/03/23 02:18:44;;;;;;;2.47;1.35;;;;;;;9.36;58.29;99544.09;4464579;31;34942;-82
2024/03/23 02:21:10;;;;;;;0.52;0.52;;;;;;;9.34;58.56;99548.56;4464923;31;32500;-82
2024/03/23 02:23:37;;;;;;;1.75;1.55;;;;;;;9.46;58.08;99542.78;4468595;31;32041;-83
2024/03/23 02:26:04;;;;;;;0.45;0.45;;;;;;;9.28;58.34;99534.78;4440741;31;33111;-84
2024/03/23 02:28:30;;;;;;;0.68;0.68;;;;;;;9.37;57.91;99532.62;4476903;31;32584;-84
2024/03/23 02:30:58;;;;;;;18.87;2.20;;;;;;;9.40;57.84;99534.25;4466573;31;33837;-84
2024/03/23 02:33:25;;;;;;;1.40;1.30;;;;;;;9.13;58.92;99533.66;4464261;31;32177;-84
2024/03/23 02:35:56;;;;;;;0.93;0.80;;;;;;;9.33;58.32;99533.66;4467810;31;33866;-84
2024/03/23 02:38:22;;;;;;;1.52;1.00;;;;;;;9.36;58.32;99525.66;4468363;31;32754;-85
2024/03/23 02:40:50;;;;;;;1.52;1.42;;;;;;;9.27;57.93;99515.50;4450158;31;32936;-84
2024/03/23 02:43:16;;;;;;;3.97;3.25;;;;;;;9.18;58.70;99510.63;4487511;31;33521;-84
2024/03/23 02:45:43;;;;;;;2.17;1.98;;;;;;;9.19;58.51;99504.44;4461646;31;33157;-85
2024/03/23 02:48:09;;;;;;;2.45;2.30;;;;;;;9.27;58.05;99504.97;4461523;31;32772;-84
2024/03/23 02:50:36;;;;;;;1.58;1.48;;;;;;;9.06;59.17;99506.72;4476603;31;32813;-84
2024/03/23 02:53:03;;;;;;;1.00;0.98;;;;;;;9.20;58.16;99506.97;4464424;31;32866;-84
2024/03/23 02:55:29;;;;;;;1.20;1.20;;;;;;;8.95;59.02;99503.69;4452617;31;33816;-84
2024/03/23 02:57:56;;;;;;;2.50;2.10;;;;;;;9.12;58.37;99495.09;4479853;31;33272;-84
2024/03/23 03:00:22;;;;;;;2.08;1.52;;;;;;;9.07;58.48;99508.44;4474348;31;33178;-84
2024/03/23 03:02:49;;;;;;;0.65;0.65;;;;;;;9.02;58.26;99505.16;4483819;31;33106;-83
2024/03/23 03:05:15;;;;;;;1.75;1.65;;;;;;;9.02;58.70;99505.16;4473048;31;32713;-82
2024/03/23 03:07:42;;;;;;;1.15;1.05;;;;;;;8.94;59.02;99505.47;4465071;31;32967;-82
2024/03/23 03:10:11;;;;;;;0.73;0.73;;;;;;;8.85;59.43;99503.22;4489440;31;33978;-82
2024/03/23 03:12:37;;;;;;;5.72;2.40;;;;;;;9.02;58.93;99499.00;4470865;31;33717;-82
2024/03/23 03:15:04;;;;;;;5.05;2.00;;;;;;;9.00;58.86;99491.19;4477569;31;33639;-82
2024/03/23 03:17:32;;;;;;;1.20;1.17;;;;;;;9.06;58.67;99500.59;4474409;31;33737;-82
2024/03/23 03:19:58;;;;;;;6.93;1.30;;;;;;;9.05;58.53;99496.25;4483200;31;33663;-82
2024/03/23 03:22:24;;;;;;;1.85;1.75;;;;;;;8.87;59.19;99497.87;4454924;32;31884;-82
2024/03/23 03:24:51;;;;;;;0.47;0.47;;;;;;;8.94;58.96;99486.19;4473396;31;33734;-82
2024/03/23 03:27:18;;;;;;;1.00;0.98;;;;;;;8.89;58.91;99489.00;4467830;31;33831;-81
2024/03/23 03:29:44;;;;;;;3.58;2.22;;;;;;;8.82;59.30;99490.16;4476836;31;34466;-81
2024/03/23 03:32:11;;;;;;;6.45;2.08;;;;;;;8.93;58.89;99480.06;4486861;31;33467;-81
2024/03/23 03:34:38;;;;;;;0.77;0.35;;;;;;;8.87;59.09;99479.44;4491796;31;33466;-81
2024/03/23 03:37:04;;;;;;;0.95;0.90;;;;;;;8.89;58.85;99478.47;4478957;31;33559;-82
2024/03/23 03:39:31;;;;;;;5.75;2.97;;;;;;;8.79;59.08;99477.16;4462322;31;34044;-82
2024/03/23 03:41:58;;;;;;;3.15;1.55;;;;;;;8.91;58.99;99476.63;4483069;31;33137;-82
2024/03/23 03:44:24;;;;;;;0.88;0.88;;;;;;;9.07;58.20;99475.97;4458992;31;33681;-82
2024/03/23 03:46:51;;;;;;;0.85;0.45;;;;;;;8.87;58.67;99475.03;4451460;31;33077;-82
2024/03/23 03:49:17;;;;;;;2.35;2.20;;;;;;;8.90;58.74;99474.06;4487587;31;33937;-81
2024/03/23 03:51:44;;;;;;;1.87;1.60;;;;;;;8.81;58.94;99477.94;4465864;31;31431;-81
2024/03/23 03:54:11;;;;;;;6.07;2.87;;;;;;;8.76;59.43;99465.88;4460992;31;35448;-82
2024/03/23 03:56:37;;;;;;;0.95;0.95;;;;;;;8.62;59.67;99474.34;4476465;31;34778;-82
2024/03/23 03:59:04;;;;;;;1.48;1.37;;;;;;;8.72;59.56;99466.00;4470319;31;34768;-81
2024/03/23 04:01:31;;;;;;;4.07;2.37;;;;;;;8.75;59.48;99472.06;4473425;31;31849;-82
2024/03/23 04:03:58;;;;;;;5.07;1.62;;;;;;;8.86;59.32;99467.19;4465967;31;33443;-81
2024/03/23 04:06:24;;;;;;;1.62;1.50;;;;;;;8.82;59.57;99463.84;4467856;31;33961;-82
2024/03/23 04:08:51;;;;;;;2.08;1.95;;;;;;;8.92;58.98;99461.66;4487690;31;34497;-81
2024/03/23 04:11:18;;;;;;;0.22;0.22;;;;;;;8.82;59.91;99466.47;4485856;31;33398;-82
2024/03/23 04:13:44;;;;;;;1.70;1.60;;;;;;;8.73;60.05;99461.59;4466405;31;31955;-81
2024/03/23 04:16:11;;;;;;;1.37;1.27;;;;;;;8.72;59.99;99457.25;4482576;31;34208;-81
2024/03/23 04:18:38;;;;;;;5.62;2.12;;;;;;;8.68;60.60;99453.03;4486313;31;34093;-82
2024/03/23 04:21:04;;;;;;;1.02;1.00;;;;;;;8.81;59.83;99453.38;4456070;31;32804;-81
2024/03/23 04:23:31;;;;;;;2.22;2.12;;;;;;;8.85;59.45;99445.28;4480837;31;33807;-82
2024/03/23 04:26:03;;;;;;;1.65;1.55;;;;;;;8.92;59.53;99452.00;4462892;31;32488;-82
2024/03/23 04:28:29;;;;;;;1.40;1.25;;;;;;;8.87;60.05;99445.22;4469434;31;34596;-82
2024/03/23 04:30:56;;;;;;;1.55;1.48;;;;;;;8.90;60.01;99451.22;4472886;31;32584;-82
2024/03/23 04:33:23;;;;;;;1.62;1.52;;;;;;;8.93;59.87;99448.47;4463198;31;34600;-82
2024/03/23 04:35:49;;;;;;;3.03;2.20;;;;;;;9.12;59.35;99450.31;4472075;31;33383;-82
2024/03/23 04:38:16;;;;;;;2.90;1.30;;;;;;;9.03;59.93;99454.19;4488037;31;33900;-81
2024/03/23 04:40:43;;;;;;;0.98;0.98;;;;;;;8.90;60.37;99442.47;4463865;31;33338;-81
2024/03/23 04:43:10;;;;;;;1.20;1.20;;;;;;;9.27;58.28;99452.25;4457707;31;34048;-81
2024/03/23 04:45:36;;;;;;;1.30;1.30;;;;;;;9.19;58.87;99443.84;4471152;31;34105;-81
2024/03/23 04:48:03;;;;;;;0.70;0.70;;;;;;;9.05;58.94;99441.78;4470244;31;33330;-82
2024/03/23 04:50:29;;;;;;;2.15;2.05;;;;;;;9.00;59.22;99449.03;4463389;31;33908;-82
2024/03/23 04:52:56;;;;;;;4.47;3.40;;;;;;;8.86;59.98;99444.37;4486529;31;34720;-82
2024/03/23 04:55:23;;;;;;;1.77;1.48;;;;;;;8.74;60.15;99437.00;4483158;31;34061;-82
2024/03/23 04:57:49;;;;;;;6.28;2.70;;;;;;;9.06;59.27;99437.37;4464116;31;33328;-82
2024/03/23 05:00:19;;;;;;;1.77;1.55;;;;;;;8.85;59.75;99447.06;4477431;31;32225;-82
2024/03/23 05:02:45;;;;;;;5.60;2.62;;;;;;;8.78;60.48;99446.44;4473078;31;34043;-82
2024/03/23 05:05:12;;;;;;;2.55;1.65;;;;;;;9.03;59.39;99448.91;4481991;31;33916;-82
2024/03/23 05:07:38;;;;;;;0.93;0.93;;;;;;;8.87;60.21;99434.69;4472887;31;33977;-82
2024/03/23 05:10:10;;;;;;;1.10;1.10;;;;;;;8.86;60.23;99435.59;4456785;31;31358;-82
2024/03/23 05:12:37;;;;;;;0.57;0.57;;;;;;;8.86;60.74;99439.09;4472382;31;34076;-82
2024/03/23 05:15:10;;;;;;;4.72;1.95;;;;;;;9.01;60.58;99439.38;4465327;31;32851;-82
2024/03/23 05:17:38;;;;;;;1.60;1.50;;;;;;;8.97;60.62;99436.87;4472571;31;33762;-82
2024/03/23 05:20:09;;;;;;;1.37;1.30;;;;;;;9.08;60.81;99436.41;4470481;31;31933;-82
2024/03/23 05:22:36;;;;;;;2.87;1.48;;;;;;;9.16;60.44;99428.16;4472885;31;32951;-82
2024/03/23 05:25:04;;;;;;;0.32;0.32;;;;;;;9.17;60.46;99429.87;4465119;31;34054;-82
2024/03/23 05:27:32;;;;;;;0.82;0.82;;;;;;;9.22;60.33;99426.12;4481499;31;33807;-82
2024/03/23 05:29:59;;;;;;;4.43;1.70;;;;;;;9.29;60.22;99429.34;4467347;32;33363;-82
2024/03/23 05:32:26;;;;;;;9.45;0.90;;;;;;;9.26;60.57;99429.50;4481467;31;34431;-82
2024/03/23 05:34:56;;;;;;;3.03;2.55;;;;;;;9.41;60.26;99425.31;4475938;31;34815;-82
2024/03/23 05:37:23;;;;;;;0.90;0.90;;;;;;;9.48;60.08;99430.22;4473876;31;34039;-82
2024/03/23 05:39:50;;;;;;;2.05;1.95;;;;;;;9.51;59.96;99428.38;4489714;31;32461;-82
2024/03/23 05:42:17;;;;;;;3.42;2.90;;;;;;;9.64;59.69;99421.63;4494036;31;33750;-82
2024/03/23 05:44:45;;;;;;;0.50;0.50;;;;;;;9.59;59.93;99421.84;4454928;31;33234;-82
2024/03/23 05:47:16;;;;;;;1.67;1.58;;;;;;;9.67;59.75;99421.47;4475892;31;33044;-82
2024/03/23 05:49:43;;;;;;;1.77;1.67;;;;;;;9.73;59.71;99418.53;4468979;31;31948;-82
2024/03/23 05:52:09;;;;;;;0.62;0.62;;;;;;;9.79;59.89;99418.28;4463298;31;32901;-82
2024/03/23 05:54:36;;;;;;;10.77;2.92;;;;;;;9.84;59.91;99420.72;4469806;31;34679;-81
2024/03/23 05:57:03;;;;;;;2.45;1.27;;;;;;;10.06;59.26;99413.47;4468158;31;32900;-81
2024/03/23 05:59:31;;;;;;;1.75;1.65;;;;;;;10.12;58.83;99415.84;4485550;31;33750;-81
2024/03/23 06:04:48;;;;;;;2.65;1.70;;;;;;;10.22;58.93;99413.63;4480959;31;34314;-83
2024/03/23 06:07:15;;;;;;;3.45;2.37;;;;;;;10.00;59.95;99406.72;4488965;31;34634;-82
2024/03/23 06:09:42;;;;;;;1.75;1.25;;;;;;;10.24;59.70;99409.13;4479870;31;33153;-82
2024/03/23 06:12:08;;;;;;;4.43;3.42;;;;;;;10.37;59.29;99398.84;4459907;31;34951;-82
2024/03/23 06:14:35;;;;;;;0.82;0.82;;;;;;;10.49;59.41;99401.75;4475865;31;32512;-82
2024/03/23 06:17:02;;;;;;;2.72;2.53;;;;;;;10.66;59.01;99394.75;4468407;31;32832;-82
2024/03/23 06:19:29;;;;;;;1.60;1.50;;;;;;;10.77;58.92;99389.75;4475968;31;30990;-82
2024/03/23 06:21:55;;;;;;;1.35;1.25;;;;;;;10.88;58.39;99379.53;4465618;31;34771;-83
2024/03/23 06:24:22;;;;;;;1.23;1.12;;;;;;;10.95;58.28;99378.25;4470285;31;33776;-83
2024/03/23 06:26:49;;;;;;;1.77;1.67;;;;;;;10.96;58.29;99369.41;4461868;31;34970;-83
2024/03/23 06:29:15;;;;;;;1.73;1.10;;;;;;;11.13;58.10;99363.25;4468337;31;32058;-83
2024/03/23 06:31:42;;;;;;;32.03;2.15;;;;;;;11.27;57.90;99365.16;4467909;31;34221;-82
2024/03/23 06:34:08;;;;;;;4.18;1.60;;;;;;;11.39;58.12;99359.19;4458156;31;34938;-83
2024/03/23 06:36:38;;;;;;;0.85;0.85;;;;;;;11.50;57.91;99346.25;4475421;31;33937;-83
2024/03/23 06:39:05;;;;;;;2.70;2.47;;;;;;;11.99;57.21;99346.19;4480544;31;34282;-84
2024/03/23 06:41:32;;;;;;;4.65;2.33;;;;;;;12.14;56.83;99351.56;4445093;31;32793;-84
2024/03/23 06:43:58;;;;;;;8.82;3.00;;;;;;;12.48;56.85;99353.94;4481758;31;34497;-82
2024/03/23 06:46:25;;;;;;;2.47;2.28;;;;;;;12.52;57.08;99352.81;4464712;31;33085;-82
2024/03/23 06:48:52;;;;;;;1.80;1.70;;;;;;;12.52;56.80;99355.47;4477721;31;32651;-82
2024/03/23 06:51:18;;;;;;;6.22;2.35;;;;;;;12.62;56.82;99357.59;4473071;31;33556;-82
2024/03/23 06:53:45;;;;;;;3.85;1.75;;;;;;;12.86;56.18;99350.81;4486909;31;33304;-82
2024/03/23 06:56:12;;;;;;;2.78;1.83;;;;;;;12.84;56.50;99349.22;4469239;31;33740;-82
2024/03/23 06:58:39;;;;;;;4.93;1.52;;;;;;;12.76;57.00;99345.22;4452061;31;31751;-82
2024/03/23 07:01:05;;;;;;;2.53;1.65;;;;;;;12.73;56.63;99341.94;4479043;31;33913;-82
2024/03/23 07:03:32;;;;;;;1.27;1.20;;;;;;;13.22;55.54;99344.28;4462200;31;33894;-82
2024/03/23 07:05:59;;;;;;;1.80;1.70;;;;;;;13.06;56.61;99336.38;4473459;31;33319;-82
2024/03/23 07:08:25;;;;;;;1.92;1.73;;;;;;;13.41;56.17;99334.22;4479130;31;33435;-82
2024/03/23 07:10:52;;;;;;;2.55;1.90;;;;;;;13.54;56.04;99340.47;4470880;31;35548;-82
2024/03/23 07:13:19;;;;;;;1.20;1.20;;;;;;;13.58;55.34;99320.75;4473561;31;33953;-82
2024/03/23 07:15:51;;;;;;;4.30;2.00;;;;;;;13.61;55.05;99321.50;4472869;31;33800;-82
2024/03/23 07:18:18;;;;;;;1.27;1.17;;;;;;;13.71;54.84;99322.59;4483558;31;34359;-82
2024/03/23 07:20:56;;;;;;;3.33;3.03;;;;;;;13.85;54.74;99327.88;4484517;31;34599;-82
2024/03/23 07:23:26;;;;;;;3.22;1.83;;;;;;;14.12;54.00;99314.63;4470693;31;32599;-82
2024/03/23 07:26:04;;;;;;;2.47;2.10;;;;;;;14.25;53.85;99323.47;4484013;31;34601;-82
2024/03/23 07:28:32;;;;;;;3.15;2.17;;;;;;;14.34;52.93;99322.03;4469769;31;31956;-82
2024/03/23 07:31:05;;;;;;;1.35;1.27;;;;;;;14.35;52.82;99315.75;4486765;31;33490;-82
2024/03/23 07:33:33;;;;;;;4.62;1.25;;;;;;;14.45;52.67;99297.38;4456018;31;35114;-82
2024/03/23 07:35:59;;;;;;;4.12;2.28;;;;;;;14.54;53.02;99302.97;4472004;31;33358;-82
2024/03/23 07:38:29;;;;;;;0.98;0.82;;;;;;;14.17;53.43;99301.03;4478512;31;33793;-82
2024/03/23 07:41:06;;;;;;;4.35;2.30;;;;;;;14.47;53.04;99291.00;4467740;31;33647;-82
2024/03/23 07:43:32;;;;;;;4.78;2.67;;;;;;;14.79;52.54;99283.53;4474109;31;34006;-82
2024/03/23 07:46:00;;;;;;;1.20;1.17;;;;;;;15.05;51.79;99286.19;4486412;31;35239;-82
2024/03/23 07:48:26;;;;;;;2.95;1.30;;;;;;;15.21;51.89;99270.84;4456358;31;33299;-82
2024/03/23 07:51:17;;;;;;;3.53;2.72;;;;;;;14.82;52.31;99272.69;4478367;31;32446;-82
2024/03/23 07:53:48;;;;;;;2.80;2.60;;;;;;;14.94;51.84;99272.78;4436755;31;33379;-82
2024/03/23 07:56:15;;;;;;;0.88;0.88;;;;;;;14.88;51.91;99270.56;4460090;31;31905;-82
2024/03/23 07:58:42;;;;;;;1.95;1.85;;;;;;;14.95;52.32;99269.16;4466672;31;33014;-83
2024/03/23 08:01:11;;;;;;;2.00;1.30;;;;;;;14.89;52.61;99274.91;4466485;31;34791;-83
2024/03/23 08:03:39;;;;;;;1.33;1.25;;;;;;;14.86;52.39;99265.34;4467806;31;34702;-82
2024/03/23 08:06:10;;;;;;;3.97;2.40;;;;;;;15.24;51.67;99265.31;4468697;31;32885;-82
2024/03/23 08:08:36;;;;;;;4.53;2.08;;;;;;;15.07;52.17;99258.50;4476945;31;34349;-83
2024/03/23 08:11:06;;;;;;;6.40;3.92;;;;;;;15.22;51.69;99261.03;4465387;31;33664;-83
2024/03/23 08:13:33;;;;;;;5.72;4.20;;;;;;;15.42;51.49;99268.44;4453496;31;33701;-81
2024/03/23 08:16:00;;;;;;;1.52;1.42;;;;;;;15.19;52.60;99266.56;4469956;31;33178;-81
2024/03/23 08:18:27;;;;;;;3.12;2.47;;;;;;;15.35;51.85;99262.72;4471558;31;33031;-81
2024/03/23 08:21:01;;;;;;;1.80;1.70;;;;;;;15.28;52.31;99265.91;4469185;31;32656;-80
2024/03/23 08:23:29;;;;;;;1.00;1.00;;;;;;;15.29;52.72;99267.63;4471260;31;33927;-81
2024/03/23 08:26:00;;;;;;;3.97;2.80;;;;;;;15.80;51.79;99259.50;4473849;31;31930;-81
2024/03/23 08:28:27;;;;;;;0.98;0.98;;;;;;;16.03;51.45;99253.31;4470308;31;34323;-81
2024/03/23 08:30:54;;;;;;;2.42;2.22;;;;;;;16.15;50.89;99245.41;4456958;31;35118;-81
2024/03/23 08:33:21;;;;;;;2.65;1.45;;;;;;;16.23;50.44;99237.66;4489340;31;33623;-82
2024/03/23 08:35:55;;;;;;;1.70;1.60;;;;;;;16.51;50.08;99237.22;4474089;31;33995;-82
2024/03/23 08:38:23;;;;;;;3.15;2.22;;;;;;;17.37;48.73;99226.00;4457624;31;34123;-81
2024/03/23 08:41:03;;;;;;;2.55;1.90;;;;;;;17.39;48.57;99217.88;4475601;31;33884;-80
2024/03/23 08:43:32;;;;;;;2.37;1.62;;;;;;;17.63;47.91;99217.72;4481247;31;34151;-81
2024/03/23 08:46:06;;;;;;;1.42;1.33;;;;;;;17.48;47.32;99206.47;4469914;31;32378;-80
2024/03/23 08:48:34;;;;;;;3.25;1.65;;;;;;;17.25;47.66;99210.16;4462735;31;33439;-80
2024/03/23 08:51:07;;;;;;;1.45;1.35;;;;;;;17.44;46.90;99215.69;4455413;31;32494;-81
2024/03/23 08:53:35;;;;;;;1.83;1.73;;;;;;;17.60;46.71;99210.78;4462400;31;32957;-80
2024/03/23 08:56:02;;;;;;;0.80;0.80;;;;;;;17.76;47.03;99205.06;4465416;31;34178;-81
2024/03/23 08:58:30;;;;;;;3.28;1.25;;;;;;;17.96;46.39;99199.91;4452716;31;32012;-81
2024/03/23 09:01:02;;;;;;;0.73;0.52;;;;;;;18.17;46.46;99193.56;4462913;31;33830;-81
2024/03/23 09:03:29;;;;;;;1.58;1.37;;;;;;;18.57;46.11;99189.34;4472606;31;34756;-81
2024/03/23 09:06:03;;;;;;;3.62;1.62;;;;;;;18.69;45.34;99185.63;4460153;31;34143;-82
2024/03/23 09:08:30;;;;;;;1.02;1.00;;;;;;;19.13;44.92;99178.16;4487641;31;31768;-81
2024/03/23 09:10:57;;;;;;;0.82;0.82;;;;;;;18.83;44.90;99176.38;4482006;31;34009;-80
2024/03/23 09:13:23;;;;;;;3.62;2.35;;;;;;;18.06;46.55;99174.94;4470550;31;34361;-81
2024/03/23 09:15:51;;;;;;;0.98;0.77;;;;;;;18.76;45.68;99167.22;4485871;31;34252;-81
2024/03/23 09:18:18;;;;;;;1.20;1.10;;;;;;;18.74;45.29;99166.50;4482716;31;32845;-81
2024/03/23 09:20:44;;;;;;;0.75;0.75;;;;;;;18.87;45.10;99159.09;4474220;31;33750;-81
2024/03/23 09:23:11;;;;;;;6.05;0.93;;;;;;;19.07;43.43;99150.13;4468300;31;32439;-81
2024/03/23 09:25:38;;;;;;;6.70;1.80;;;;;;;19.50;42.62;99154.31;4468334;31;35680;-81
2024/03/23 09:28:06;;;;;;;3.33;1.67;;;;;;;19.77;42.33;99137.56;4470620;31;33099;-81
2024/03/23 09:30:33;;;;;;;2.35;1.02;;;;;;;19.45;42.11;99146.69;4458583;31;32041;-81
2024/03/23 09:33:01;;;;;;;1.55;1.30;;;;;;;19.59;41.09;99156.16;4470391;31;34155;-81
2024/03/23 09:35:27;;;;;;;3.17;1.80;;;;;;;19.25;41.94;99146.81;4483414;31;33064;-81
2024/03/23 09:37:54;;;;;;;7.12;1.33;;;;;;;19.85;41.21;99143.09;4470562;31;32671;-81
2024/03/23 09:40:21;;;;;;;1.75;1.65;;;;;;;19.67;40.72;99140.25;4461901;31;33019;-81
2024/03/23 09:42:51;;;;;;;2.58;1.85;;;;;;;19.52;41.30;99141.63;4469047;31;34341;-81
2024/03/23 09:45:21;;;;;;;3.62;1.37;;;;;;;19.53;41.68;99135.28;4484374;31;32937;-81
2024/03/23 09:47:49;;;;;;;1.80;1.70;;;;;;;19.44;42.24;99136.97;4469487;31;33225;-81
2024/03/23 09:50:15;;;;;;;1.27;1.20;;;;;;;20.06;41.22;99124.16;4474360;31;33144;-81
2024/03/23 09:52:42;;;;;;;1.40;1.12;;;;;;;20.45;40.73;99116.84;4467248;31;33183;-81
2024/03/23 09:55:09;;;;;;;1.35;1.25;;;;;;;20.44;40.58;99123.19;4461246;31;33140;-81
2024/03/23 09:57:36;;;;;;;2.60;2.35;;;;;;;20.39;40.26;99108.56;4488170;31;33283;-81
2024/03/23 10:00:03;;;;;;;2.50;1.48;;;;;;;20.39;40.99;99105.88;4469456;31;34605;-82
2024/03/23 10:02:36;;;;;;;1.83;1.62;;;;;;;20.63;40.74;99100.84;4471167;32;33591;-81
2024/03/23 10:05:03;;;;;;;1.23;1.12;;;;;;;20.92;40.61;99075.72;4472116;31;33472;-82
2024/03/23 10:07:30;;;;;;;0.98;0.98;;;;;;;21.23;40.51;99082.44;4465059;31;33095;-82
2024/03/23 10:09:57;;;;;;;1.25;1.15;;;;;;;21.44;39.36;99070.56;4470616;31;32805;-81
2024/03/23 10:13:09;;;;;;;2.12;2.03;;;;;;;21.13;37.89;99072.78;4456696;31;34785;-82
2024/03/23 10:23:36;;;;;;;0.93;0.93;;;;;;;20.95;38.07;99059.31;4489079;31;34117;-82
2024/03/23 10:26:12;;;;;;;2.35;0.77;;;;;;;21.02;37.58;99060.41;4470891;31;32577;-82
2024/03/23 10:29:01;;;;;;;3.15;1.40;;;;;;;21.08;35.75;99037.47;4466503;31;33111;-82
2024/03/23 10:31:29;;;;;;;1.23;0.80;;;;;;;20.62;36.49;99053.56;4471319;31;32586;-82
2024/03/23 10:33:56;;;;;;;0.93;0.93;;;;;;;21.39;35.44;99051.41;4471013;31;32945;-82
2024/03/23 10:36:23;;;;;;;4.82;1.40;;;;;;;21.10;34.93;99039.00;4475265;31;33883;-82
2024/03/23 10:38:51;;;;;;;2.10;2.00;;;;;;;20.94;35.44;99046.91;4477580;31;32704;-82
2024/03/23 10:41:19;;;;;;;1.23;1.00;;;;;;;21.43;34.97;99031.28;4473224;31;32575;-82
2024/03/23 10:43:47;;;;;;;0.77;0.77;;;;;;;21.13;35.79;99032.50;4482617;31;33907;-82
2024/03/23 10:50:36;;;;;;;0.47;0.45;;;;;;;21.64;35.21;99018.34;4476454;31;32851;-82
2024/03/23 10:53:19;;;;;;;0.82;0.70;;;;;;;21.95;35.24;99010.69;4453583;31;32272;-82
2024/03/23 10:55:50;;;;;;;2.55;0.68;;;;;;;21.93;35.09;99001.09;4457114;31;33142;-82
2024/03/23 10:58:31;;;;;;;1.23;1.23;;;;;;;21.21;35.42;99011.09;4464973;31;35726;-81
2024/03/23 11:00:58;;;;;;;1.02;0.95;;;;;;;20.96;34.44;99001.97;4465787;31;33954;-81
2024/03/23 11:03:36;;;;;;;3.42;0.90;;;;;;;21.27;34.81;99004.25;4472666;31;33231;-81
2024/03/23 11:06:04;;;;;;;0.65;0.65;;;;;;;21.41;34.41;98995.69;4481761;31;33859;-81
2024/03/23 11:08:34;;;;;;;1.27;0.73;;;;;;;20.90;35.02;98991.84;4472320;31;32589;-82
2024/03/23 11:11:12;;;;;;;0.88;0.70;;;;;;;21.19;34.69;98980.88;4473432;31;32432;-81
2024/03/23 11:13:39;;;;;;;1.45;0.90;;;;;;;21.30;35.10;98974.41;4466689;31;33211;-82
2024/03/23 11:16:14;;;;;;;0.98;0.55;;;;;;;21.61;34.99;98964.97;4481361;31;36255;-81
2024/03/23 11:18:41;;;;;;;0.55;0.55;;;;;;;21.73;35.09;98963.69;4470764;31;33562;-81
2024/03/23 11:21:08;;;;;;;0.90;0.73;;;;;;;22.26;34.35;98958.25;4471403;31;33210;-81
2024/03/23 11:23:35;;;;;;;1.12;1.02;;;;;;;22.20;33.34;98952.53;4477091;31;33103;-81
2024/03/23 11:26:02;;;;;;;0.50;0.50;;;;;;;21.69;33.42;98956.94;4474840;31;32644;-81
2024/03/23 11:28:28;;;;;;;0.62;0.57;;;;;;;21.88;33.40;98953.19;4477045;31;33445;-81
2024/03/23 11:30:55;;;;;;;1.00;0.98;;;;;;;21.84;32.98;98940.22;4463668;32;33574;-81
2024/03/23 11:33:22;;;;;;;1.42;1.33;;;;;;;21.85;33.12;98947.31;4468208;31;34300;-81
2024/03/23 11:35:49;;;;;;;0.40;0.40;;;;;;;22.18;32.89;98941.13;4461866;31;33681;-81
2024/03/23 11:38:19;;;;;;;1.17;0.95;;;;;;;22.65;31.91;98924.44;4472358;31;33375;-81
2024/03/23 11:40:48;;;;;;;0.77;0.77;;;;;;;23.21;31.54;98922.81;4472948;31;35019;-81
2024/03/23 11:43:16;;;;;;;0.47;0.47;;;;;;;22.88;31.33;98921.09;4484099;31;33848;-82
2024/03/23 11:45:44;;;;;;;1.20;0.80;;;;;;;23.14;31.23;98902.97;4484035;31;34496;-81
2024/03/23 11:48:19;;;;;;;0.70;0.55;;;;;;;23.49;30.46;98899.03;4471158;32;34851;-81
2024/03/23 11:50:47;;;;;;;1.75;1.15;;;;;;;23.69;30.78;98894.16;4460966;32;34246;-81
2024/03/23 11:53:27;;;;;;;4.00;1.70;;;;;;;23.88;30.80;98886.66;4454726;32;34067;-81
2024/03/23 11:55:55;;;;;;;0.75;0.75;;;;;;;23.90;30.90;98890.03;4443362;32;32177;-81